Time;durP1;ratioP1;P1;durP2;ratioP2;P2;SDS_P1;SDS_P2;PMS_P1;PMS_P2;Temp;Humidity;BMP_temperature;BMP_pressure;BME280_temperature;BME280_humidity;BME280_pressure;Samples;Min_cycle;Max_cycle;Signal;HPM_P1;HPM_P2
2022/12/08 00:02:51;;;;;;;21.27;14.33;;;;;;;-0.91;65.61;99586.44;10443377;28;20233;-35
2022/12/08 00:13:14;;;;;;;22.77;14.80;;;;;;;0.79;62.13;99526.66;10443117;28;20243;-35
2022/12/08 00:18:16;;;;;;;22.50;15.03;;;;;;;-0.16;62.94;99566.75;10442100;28;20315;-35
2022/12/08 00:23:17;;;;;;;20.50;13.60;;;;;;;0.29;61.89;99533.31;10448273;28;20238;-35
2022/12/08 00:28:19;;;;;;;22.67;13.70;;;;;;;0.71;61.33;99511.50;10444661;28;20274;-35
2022/12/08 00:33:21;;;;;;;19.47;13.40;;;;;;;0.95;60.59;99508.63;10446089;28;20236;-35
2022/12/08 00:38:23;;;;;;;22.40;14.40;;;;;;;0.06;62.15;99536.97;10440931;28;20359;-35
2022/12/08 00:43:25;;;;;;;18.87;13.00;;;;;;;-0.35;64.08;99548.94;10450219;28;20679;-35
2022/12/08 00:48:27;;;;;;;17.87;12.83;;;;;;;0.42;61.89;99506.00;10447125;28;20533;-35
2022/12/08 00:53:30;;;;;;;22.20;13.57;;;;;;;1.00;59.84;99479.22;10453304;28;20339;-35
2022/12/08 00:58:32;;;;;;;21.93;13.67;;;;;;;0.58;60.54;99489.75;10447685;28;20230;-35
2022/12/08 01:03:34;;;;;;;18.63;13.33;;;;;;;0.79;60.21;99484.53;10450881;28;20257;-34
2022/12/08 01:08:36;;;;;;;19.13;12.17;;;;;;;1.51;58.86;99462.59;10446843;28;20609;-35
2022/12/08 01:13:38;;;;;;;20.67;14.70;;;;;;;0.92;60.01;99490.44;10443098;28;20234;-35
2022/12/08 01:18:40;;;;;;;20.50;13.67;;;;;;;0.41;61.10;99512.22;10440865;28;20237;-35
2022/12/08 01:23:42;;;;;;;17.63;12.10;;;;;;;0.88;60.89;99496.91;10440781;28;20248;-34
2022/12/08 01:28:45;;;;;;;20.90;13.43;;;;;;;1.32;59.50;99481.81;10438287;28;20238;-35
2022/12/08 01:33:47;;;;;;;20.43;12.77;;;;;;;0.98;59.67;99487.28;10448363;28;20222;-35
2022/12/08 01:38:50;;;;;;;19.07;13.20;;;;;;;0.95;60.76;99495.47;10446621;28;20236;-34
2022/12/08 01:44:03;;;;;;;19.03;12.43;;;;;;;0.97;59.33;99490.06;10443533;28;20248;-35
2022/12/08 01:49:16;;;;;;;19.60;13.03;;;;;;;1.12;59.11;99482.63;10450577;28;20259;-35
2022/12/08 01:54:22;;;;;;;16.73;12.00;;;;;;;-0.42;62.35;99543.31;10446323;28;20236;-34
2022/12/08 01:59:24;;;;;;;16.40;13.03;;;;;;;0.40;60.38;99514.00;10435464;28;20266;-35
2022/12/08 02:04:26;;;;;;;19.77;13.83;;;;;;;-0.32;61.76;99532.91;10452349;28;20262;-35
2022/12/08 02:09:28;;;;;;;17.63;12.37;;;;;;;-1.22;63.74;99539.66;10442409;28;20230;-34
2022/12/08 02:14:31;;;;;;;8.40;6.37;;;;;;;-2.53;68.17;99493.13;10441880;28;20236;-34
2022/12/08 02:20:04;;;;;;;12.37;7.97;;;;;;;-1.90;67.25;99500.94;10443115;28;20247;-34
2022/12/08 02:25:18;;;;;;;13.23;9.87;;;;;;;-1.14;63.68;99499.72;10442430;28;20231;-35
2022/12/08 02:30:24;;;;;;;19.53;12.40;;;;;;;0.13;61.97;99459.19;10432942;28;20248;-35
2022/12/08 02:35:35;;;;;;;16.93;12.37;;;;;;;0.76;59.80;99429.47;10443461;28;20284;-35
2022/12/08 02:41:00;;;;;;;18.17;13.77;;;;;;;0.21;60.88;99454.16;10438689;28;20240;-35
2022/12/08 02:46:06;;;;;;;18.67;13.33;;;;;;;0.32;59.79;99448.00;10405655;28;20272;-35
2022/12/08 02:51:08;;;;;;;18.70;12.50;;;;;;;1.12;58.57;99419.38;10439156;28;20613;-35
2022/12/08 02:56:40;;;;;;;19.23;13.53;;;;;;;1.36;57.59;99419.94;10435398;28;20231;-35
2022/12/08 03:02:00;;;;;;;19.23;13.00;;;;;;;0.91;57.98;99425.53;10441886;28;20265;-35
2022/12/08 03:07:32;;;;;;;18.00;12.27;;;;;;;0.29;59.88;99464.03;10444424;28;20616;-35
2022/12/08 03:12:46;;;;;;;19.17;12.50;;;;;;;0.31;59.76;99438.44;10431310;28;20982;-35
2022/12/08 03:17:55;;;;;;;18.97;13.27;;;;;;;1.02;58.02;99422.81;10441306;28;20236;-35
2022/12/08 03:22:59;;;;;;;20.87;13.03;;;;;;;-0.06;60.24;99449.34;10436899;28;20242;-34
2022/12/08 03:28:01;;;;;;;21.43;14.43;;;;;;;0.56;59.19;99445.16;10434429;28;20539;-35
2022/12/08 03:33:16;;;;;;;23.40;14.03;;;;;;;0.50;58.53;99432.47;10437576;28;20682;-35
2022/12/08 03:38:18;;;;;;;19.90;12.90;;;;;;;0.91;58.00;99416.78;10434555;28;20235;-35
2022/12/08 03:43:20;;;;;;;20.60;12.83;;;;;;;0.58;58.95;99432.69;10438873;28;20662;-35
2022/12/08 03:48:22;;;;;;;18.83;13.53;;;;;;;0.89;57.55;99426.63;10441844;28;20237;-35
2022/12/08 03:53:24;;;;;;;27.00;17.40;;;;;;;0.65;58.69;99433.00;10450900;28;20356;-35
2022/12/08 03:58:26;;;;;;;22.13;15.80;;;;;;;0.34;58.94;99429.44;10443401;28;21491;-35
2022/12/08 04:03:33;;;;;;;24.10;14.93;;;;;;;0.22;58.59;99426.84;10446844;28;20252;-35
2022/12/08 04:08:35;;;;;;;22.07;13.87;;;;;;;0.84;58.43;99406.75;10446657;28;20333;-35
2022/12/08 04:13:38;;;;;;;24.73;14.90;;;;;;;0.52;59.01;99416.56;10446205;28;20624;-36
2022/12/08 04:18:40;;;;;;;18.57;13.27;;;;;;;0.81;58.56;99393.03;10448373;28;20585;-36
2022/12/08 04:23:42;;;;;;;20.03;12.93;;;;;;;0.89;58.41;99395.03;10444271;28;20244;-35
2022/12/08 04:28:44;;;;;;;22.63;14.33;;;;;;;1.41;56.89;99380.81;10447083;28;20232;-35
2022/12/08 04:33:46;;;;;;;21.53;13.97;;;;;;;0.50;57.94;99398.25;10447187;28;20776;-36
2022/12/08 04:38:47;;;;;;;20.07;14.60;;;;;;;1.25;57.58;99383.09;10445343;28;20244;-35
2022/12/08 04:43:49;;;;;;;20.50;13.90;;;;;;;0.76;58.43;99403.94;10442182;28;20235;-36
2022/12/08 04:48:51;;;;;;;22.00;15.23;;;;;;;0.14;59.73;99424.03;10442164;28;20232;-35
2022/12/08 04:53:53;;;;;;;23.40;15.43;;;;;;;0.54;59.14;99396.19;10445165;28;20234;-35
2022/12/08 04:58:54;;;;;;;28.13;17.30;;;;;;;0.63;59.05;99404.16;10438285;28;20258;-36
2022/12/08 05:05:12;;;;;;;23.47;16.03;;;;;;;-1.18;64.84;99435.22;10548900;27;20360;-66
2022/12/08 05:10:14;;;;;;;28.27;18.97;;;;;;;-0.47;62.21;99406.13;10520477;28;20635;-65
2022/12/08 05:15:15;;;;;;;32.47;20.20;;;;;;;-0.21;61.41;99413.75;10546179;27;20281;-65
2022/12/08 05:20:17;;;;;;;32.00;21.27;;;;;;;0.20;60.41;99396.38;10546080;28;20232;-65
2022/12/08 05:25:19;;;;;;;22.90;16.87;;;;;;;0.08;60.40;99399.03;10553754;28;20229;-65
2022/12/08 05:30:20;;;;;;;23.43;16.53;;;;;;;-0.11;60.46;99383.09;10544098;27;20232;-66
2022/12/08 05:35:22;;;;;;;28.13;16.97;;;;;;;-0.06;61.10;99394.91;10561926;27;20241;-66
2022/12/08 05:40:23;;;;;;;24.13;15.97;;;;;;;-0.34;61.17;99388.41;10548134;27;20236;-66
2022/12/08 05:45:25;;;;;;;28.67;19.17;;;;;;;-0.19;60.93;99390.78;10468950;22;20253;-35
2022/12/08 05:50:27;;;;;;;24.83;16.13;;;;;;;0.18;60.26;99374.63;10424547;28;20333;-34
2022/12/08 05:55:29;;;;;;;22.23;15.30;;;;;;;-0.57;61.59;99392.88;10422277;28;20613;-34
2022/12/08 06:00:33;;;;;;;22.50;14.37;;;;;;;-1.38;63.35;99419.22;10413288;28;20231;-35
2022/12/08 06:05:35;;;;;;;21.07;14.33;;;;;;;0.03;60.74;99384.59;10374680;28;20614;-35
2022/12/08 06:10:38;;;;;;;20.57;14.17;;;;;;;-0.30;61.36;99387.22;10390377;28;20242;-34
2022/12/08 06:15:40;;;;;;;20.43;14.50;;;;;;;-0.39;61.22;99390.59;10391948;28;20763;-35
2022/12/08 06:20:42;;;;;;;22.40;15.30;;;;;;;0.46;59.75;99363.47;10443905;28;20251;-35
2022/12/08 06:25:43;;;;;;;22.83;14.00;;;;;;;-0.55;61.36;99385.72;10441134;28;20243;-35
2022/12/08 06:30:45;;;;;;;24.10;15.07;;;;;;;-0.01;59.96;99372.66;10440026;28;20274;-34
2022/12/08 06:35:47;;;;;;;23.87;15.70;;;;;;;-0.00;60.75;99369.06;10454417;28;20340;-34
2022/12/08 06:40:53;;;;;;;24.30;15.57;;;;;;;-0.16;60.36;99370.31;10419538;28;20589;-36
2022/12/08 06:45:55;;;;;;;23.60;15.60;;;;;;;-0.06;60.78;99370.41;10439106;28;20609;-34
2022/12/08 06:50:57;;;;;;;24.83;15.73;;;;;;;0.21;60.03;99362.03;10437833;28;20234;-34
2022/12/08 06:55:58;;;;;;;27.00;16.03;;;;;;;-0.08;60.56;99383.69;10447171;28;20753;-35
2022/12/08 07:01:05;;;;;;;22.77;13.93;;;;;;;0.08;60.36;99378.00;10421957;28;20238;-35
2022/12/08 07:06:07;;;;;;;26.73;17.07;;;;;;;0.37;60.05;99368.66;10441034;28;20247;-34
2022/12/08 07:11:10;;;;;;;32.50;19.37;;;;;;;0.05;59.72;99372.16;10431580;28;20465;-35
2022/12/08 07:16:18;;;;;;;27.43;17.40;;;;;;;-0.25;60.41;99387.69;10443848;28;20809;-34
2022/12/08 07:21:20;;;;;;;21.77;15.23;;;;;;;-0.25;61.11;99376.31;10440911;28;20277;-35
2022/12/08 07:26:22;;;;;;;21.17;15.40;;;;;;;-0.88;63.16;99413.66;10442886;28;20236;-35
2022/12/08 07:31:25;;;;;;;21.87;14.10;;;;;;;-1.77;65.07;99431.75;10441046;28;20234;-34
2022/12/08 07:36:27;;;;;;;19.90;15.17;;;;;;;-1.49;64.68;99441.97;10442020;28;20244;-35
2022/12/08 07:41:28;;;;;;;24.20;13.60;;;;;;;-1.70;65.95;99424.22;10435869;28;20728;-35
2022/12/08 07:46:30;;;;;;;23.27;15.67;;;;;;;-0.98;64.24;99381.19;10448823;28;20240;-35
2022/12/08 07:51:32;;;;;;;23.47;14.93;;;;;;;-1.81;67.12;99396.19;10438175;28;20238;-34
2022/12/08 07:56:34;;;;;;;22.97;14.47;;;;;;;-1.07;66.10;99359.09;10436551;28;20240;-33
2022/12/08 08:01:36;;;;;;;25.13;16.47;;;;;;;-1.01;65.74;99369.13;10429918;28;20229;-34
2022/12/08 08:06:38;;;;;;;24.77;15.87;;;;;;;-1.19;65.86;99346.94;10416413;28;20241;-35
2022/12/08 08:11:39;;;;;;;23.43;15.07;;;;;;;-2.27;69.73;99372.50;10433041;28;20595;-34
2022/12/08 08:16:45;;;;;;;26.10;16.80;;;;;;;-0.44;64.52;99300.72;10418407;28;20236;-35
2022/12/08 08:21:47;;;;;;;29.33;19.47;;;;;;;-0.52;64.60;99314.50;10438510;28;20334;-36
2022/12/08 08:26:49;;;;;;;27.40;20.33;;;;;;;0.01;62.86;99294.47;10436799;28;20601;-36
2022/12/08 08:31:51;;;;;;;29.60;19.73;;;;;;;0.24;62.63;99292.50;10431001;28;20407;-35
2022/12/08 08:36:53;;;;;;;34.27;22.17;;;;;;;-0.12;62.95;99305.16;10438905;28;20233;-34
2022/12/08 08:41:54;;;;;;;37.27;25.13;;;;;;;0.04;62.94;99302.06;10436200;28;20261;-36
2022/12/08 08:46:56;;;;;;;40.00;25.20;;;;;;;-0.38;63.80;99317.78;10432920;28;20234;-35
2022/12/08 08:51:58;;;;;;;43.63;27.17;;;;;;;0.55;61.85;99287.28;10415597;28;20249;-36
2022/12/08 08:57:00;;;;;;;30.67;20.20;;;;;;;-0.14;62.49;99304.44;10436402;28;20269;-36
2022/12/08 09:02:02;;;;;;;31.40;18.97;;;;;;;-0.11;63.57;99319.97;10439302;28;20229;-36
2022/12/08 09:07:04;;;;;;;29.60;20.37;;;;;;;1.38;60.25;99285.34;10445935;28;20239;-35
2022/12/08 09:12:06;;;;;;;30.97;20.23;;;;;;;0.44;61.38;99288.19;10427955;28;20233;-35
2022/12/08 09:17:08;;;;;;;30.40;20.17;;;;;;;0.44;62.22;99312.72;10434988;28;20313;-35
2022/12/08 09:22:09;;;;;;;32.23;20.60;;;;;;;-0.00;62.72;99319.09;10438062;28;20233;-34
2022/12/08 09:27:11;;;;;;;35.03;22.20;;;;;;;0.60;61.44;99293.81;10431616;28;20274;-35
2022/12/08 09:32:13;;;;;;;27.23;19.50;;;;;;;0.76;60.89;99292.50;10437265;28;20703;-35
2022/12/08 09:37:15;;;;;;;28.33;19.83;;;;;;;0.78;60.84;99280.88;10438946;28;20242;-35
2022/12/08 09:42:29;;;;;;;24.17;16.93;;;;;;;0.56;61.03;99286.31;10425331;28;20316;-35
2022/12/08 09:47:38;;;;;;;28.93;19.03;;;;;;;0.94;60.48;99288.25;10435507;28;20248;-35
2022/12/08 09:52:45;;;;;;;27.90;17.93;;;;;;;0.45;61.87;99288.06;10428703;28;20614;-36
2022/12/08 09:57:58;;;;;;;27.33;18.27;;;;;;;0.92;60.66;99278.84;10438911;28;20654;-35
2022/12/08 10:03:00;;;;;;;27.73;19.43;;;;;;;0.82;61.47;99281.44;10449686;28;20228;-36
2022/12/08 10:08:19;;;;;;;29.30;18.83;;;;;;;1.59;59.73;99258.81;10451166;28;20485;-36
2022/12/08 10:13:43;;;;;;;28.27;18.90;;;;;;;0.91;60.90;99259.53;10439998;28;20276;-35
2022/12/08 10:18:45;;;;;;;26.30;18.40;;;;;;;0.77;61.64;99270.47;10430204;28;20231;-36
2022/12/08 10:23:52;;;;;;;30.37;18.70;;;;;;;1.09;60.97;99253.63;10448714;28;20239;-37
2022/12/08 10:29:00;;;;;;;28.43;18.30;;;;;;;0.96;61.43;99261.78;10445816;28;20286;-38
2022/12/08 10:34:15;;;;;;;28.73;18.77;;;;;;;1.20;61.66;99240.31;10440623;28;20230;-38
2022/12/08 10:39:36;;;;;;;31.17;20.63;;;;;;;1.22;61.36;99233.97;10436542;28;20784;-37
2022/12/08 10:44:52;;;;;;;28.07;19.10;;;;;;;1.71;60.17;99249.81;10443748;28;20241;-38
2022/12/08 10:50:17;;;;;;;25.37;17.87;;;;;;;0.26;61.61;99272.19;10436422;28;20256;-37
2022/12/08 10:55:20;;;;;;;24.53;17.40;;;;;;;1.47;60.22;99234.41;10445711;28;20232;-38
2022/12/08 11:06:20;;;;;;;25.20;16.33;;;;;;;0.14;64.84;99250.38;10508734;27;20891;-65
2022/12/08 11:11:46;;;;;;;23.03;16.33;;;;;;;0.55;63.33;99219.66;10475439;28;20256;-66
2022/12/08 11:16:50;;;;;;;26.13;15.93;;;;;;;0.13;64.02;99246.06;10474256;28;20261;-66
2022/12/08 11:21:52;;;;;;;23.70;17.17;;;;;;;0.96;63.26;99206.44;10468567;28;20258;-66
2022/12/08 11:27:01;;;;;;;24.97;16.00;;;;;;;0.56;63.39;99217.84;10486155;28;20643;-65
2022/12/08 11:32:11;;;;;;;22.10;16.13;;;;;;;1.18;62.39;99187.75;10483589;28;20227;-67
2022/12/08 11:37:34;;;;;;;22.20;14.40;;;;;;;0.19;65.27;99231.53;10463984;28;20276;-66
2022/12/08 11:42:53;;;;;;;24.50;15.63;;;;;;;1.35;61.67;99178.34;10453316;28;20605;-65
2022/12/08 11:48:18;;;;;;;23.50;15.70;;;;;;;1.74;60.83;99177.47;10463874;28;20234;-66
2022/12/08 11:53:28;;;;;;;21.37;15.17;;;;;;;1.24;61.37;99178.47;10462431;28;20254;-66
2022/12/08 11:58:38;;;;;;;22.17;15.00;;;;;;;1.86;60.20;99192.19;10471112;28;20239;-66
2022/12/08 12:03:46;;;;;;;22.23;14.23;;;;;;;1.18;60.32;99168.47;10480578;28;20325;-65
2022/12/08 12:09:10;;;;;;;17.10;11.87;;;;;;;0.46;62.22;99197.59;10500725;28;20246;-66
2022/12/08 12:14:33;;;;;;;20.07;13.90;;;;;;;1.79;58.98;99167.31;10430363;28;20238;-66
2022/12/08 12:19:38;;;;;;;17.73;12.03;;;;;;;1.11;61.58;99193.72;10434001;28;20280;-66
2022/12/08 12:24:43;;;;;;;16.77;11.37;;;;;;;1.16;59.88;99168.59;10436399;28;20238;-66
2022/12/08 12:29:49;;;;;;;23.77;14.77;;;;;;;1.36;59.72;99169.47;10432671;28;20269;-66
2022/12/08 12:35:15;;;;;;;22.33;14.73;;;;;;;2.08;57.99;99180.44;10434314;28;20235;-66
2022/12/08 12:40:23;;;;;;;22.83;15.90;;;;;;;1.73;58.22;99173.19;10438026;28;20238;-65
2022/12/08 12:45:24;;;;;;;24.87;16.37;;;;;;;2.54;56.81;99193.75;10458578;28;20224;-64
2022/12/08 12:50:32;;;;;;;18.53;12.70;;;;;;;1.61;57.63;99165.41;10445279;28;20246;-65
2022/12/08 12:55:55;;;;;;;20.77;13.07;;;;;;;2.04;57.28;99172.97;10463560;28;20254;-66
2022/12/08 13:01:09;;;;;;;23.70;13.90;;;;;;;2.47;56.80;99192.69;10433278;28;20244;-66
2022/12/08 13:06:13;;;;;;;16.47;12.27;;;;;;;1.42;56.69;99176.84;10431149;28;20272;-66
2022/12/08 13:11:15;;;;;;;14.53;11.50;;;;;;;2.52;55.94;99193.88;10433656;28;20227;-66
2022/12/08 13:16:22;;;;;;;15.53;11.07;;;;;;;2.53;55.39;99185.00;10427546;28;20243;-66
2022/12/08 13:21:35;;;;;;;14.67;10.80;;;;;;;2.28;55.50;99202.34;10434423;28;20330;-67
2022/12/08 13:27:02;;;;;;;14.80;10.60;;;;;;;2.48;55.15;99207.53;10426101;28;20919;-66
2022/12/08 13:32:42;;;;;;;16.87;10.37;;;;;;;1.92;56.23;99201.31;10428842;28;20956;-66
2022/12/08 13:38:05;;;;;;;13.40;10.13;;;;;;;1.91;56.51;99189.94;10434009;28;20289;-67
2022/12/08 13:43:33;;;;;;;12.77;9.23;;;;;;;2.21;56.67;99206.50;10427341;28;20231;-66
2022/12/08 13:48:53;;;;;;;9.60;6.77;;;;;;;0.52;59.17;99219.91;10427052;28;20234;-67
2022/12/08 13:54:25;;;;;;;12.17;9.37;;;;;;;1.69;58.20;99200.81;10434277;28;20284;-66
2022/12/08 13:59:47;;;;;;;9.33;7.57;;;;;;;1.22;59.13;99217.31;10435182;28;20908;-67
2022/12/08 14:04:48;;;;;;;6.70;6.00;;;;;;;0.49;58.92;99217.53;10433978;28;20243;-67
2022/12/08 14:10:19;;;;;;;10.00;7.00;;;;;;;1.10;56.53;99192.03;10430565;28;20846;-69
2022/12/08 14:15:22;;;;;;;10.87;7.37;;;;;;;1.48;55.52;99195.69;10431580;28;20235;-71
2022/12/08 14:20:26;;;;;;;9.80;5.80;;;;;;;2.22;54.47;99196.81;10424478;28;20246;-71
2022/12/08 14:25:29;;;;;;;8.67;6.23;;;;;;;2.30;54.30;99202.19;10433028;28;20244;-69
2022/12/08 14:30:31;;;;;;;9.03;7.47;;;;;;;1.92;55.30;99211.88;10417384;28;20293;-70
2022/12/08 14:35:35;;;;;;;10.87;8.10;;;;;;;1.84;54.80;99202.03;10432778;28;21674;-70
2022/12/08 14:40:38;;;;;;;10.87;7.73;;;;;;;2.22;54.71;99223.22;10423988;28;20814;-71
2022/12/08 14:45:40;;;;;;;11.13;7.80;;;;;;;1.01;56.21;99234.03;10423668;28;20262;-68
2022/12/08 14:51:02;;;;;;;11.63;8.13;;;;;;;1.77;55.53;99217.59;10429584;28;20238;-68
2022/12/08 14:56:25;;;;;;;9.47;6.67;;;;;;;1.21;56.30;99249.91;10424722;28;20750;-69
2022/12/08 15:01:27;;;;;;;10.17;8.20;;;;;;;1.86;54.67;99217.72;10424513;28;21138;-68
2022/12/08 15:06:29;;;;;;;11.87;8.33;;;;;;;3.06;53.09;99238.16;10429652;28;20242;-70
2022/12/08 15:11:33;;;;;;;15.90;11.13;;;;;;;2.76;52.86;99232.16;10428331;28;20284;-68
2022/12/08 15:16:35;;;;;;;12.57;10.10;;;;;;;2.74;53.20;99223.53;10426996;28;20607;-69
2022/12/08 15:21:37;;;;;;;15.80;11.47;;;;;;;2.77;53.76;99239.13;10431355;28;20778;-69
2022/12/08 15:26:47;;;;;;;14.67;10.17;;;;;;;2.19;54.52;99212.94;10427998;28;20964;-69
2022/12/08 15:31:51;;;;;;;14.17;9.67;;;;;;;3.28;53.24;99248.28;10432974;28;20231;-70
2022/12/08 15:36:53;;;;;;;14.03;9.70;;;;;;;3.24;53.19;99249.59;10426299;28;20722;-70
2022/12/08 15:41:56;;;;;;;13.87;9.97;;;;;;;2.23;54.43;99219.56;10430047;28;20313;-68
2022/12/08 15:46:58;;;;;;;13.67;10.43;;;;;;;2.25;55.78;99246.66;10428986;28;20248;-69
2022/12/08 15:52:00;;;;;;;17.63;11.53;;;;;;;1.56;57.04;99230.13;10436047;28;20565;-68
2022/12/08 15:57:25;;;;;;;22.67;10.53;;;;;;;2.57;55.47;99216.38;10432893;28;20278;-70
2022/12/08 16:02:48;;;;;;;16.13;11.40;;;;;;;2.03;56.63;99227.56;10435999;28;20258;-70
2022/12/08 16:08:13;;;;;;;15.60;10.57;;;;;;;3.07;54.37;99216.00;10432921;28;20256;-71
2022/12/08 16:13:50;;;;;;;15.37;11.30;;;;;;;3.45;53.13;99235.22;10434301;28;20958;-69
2022/12/08 16:19:15;;;;;;;19.73;11.47;;;;;;;2.94;54.40;99203.16;10432508;28;20716;-70
2022/12/08 16:24:17;;;;;;;15.30;12.00;;;;;;;3.55;52.71;99211.34;10471449;28;20235;-70
2022/12/08 16:29:21;;;;;;;20.47;12.20;;;;;;;4.08;52.25;99239.50;10478866;28;20242;-65
2022/12/08 16:34:23;;;;;;;24.57;13.87;;;;;;;3.60;52.73;99207.25;10477496;28;20250;-69
2022/12/08 16:39:24;;;;;;;32.73;17.13;;;;;;;3.98;52.10;99233.50;10475254;28;20219;-70
2022/12/08 16:44:26;;;;;;;24.07;14.50;;;;;;;3.02;53.72;99179.44;10479545;28;21414;-69
2022/12/08 16:49:28;;;;;;;31.13;20.43;;;;;;;3.38;53.47;99203.25;10472620;28;20262;-66
2022/12/08 16:54:29;;;;;;;27.13;19.10;;;;;;;2.64;55.00;99170.75;10469491;28;20219;-66
2022/12/08 16:59:31;;;;;;;19.83;14.77;;;;;;;1.81;56.79;99197.06;10467285;28;20326;-66
2022/12/08 17:04:33;;;;;;;29.10;18.80;;;;;;;1.13;59.06;99194.41;10470959;28;20300;-64
2022/12/08 17:09:34;;;;;;;26.37;16.07;;;;;;;1.72;58.10;99193.44;10460178;28;20745;-66
2022/12/08 17:14:36;;;;;;;24.30;17.67;;;;;;;3.06;56.02;99158.84;10464391;28;20711;-65
2022/12/08 17:19:38;;;;;;;23.47;16.93;;;;;;;3.56;54.07;99168.81;10468480;28;20245;-66
2022/12/08 17:24:39;;;;;;;26.47;19.23;;;;;;;1.88;57.48;99173.56;10469280;28;20230;-66
2022/12/08 17:29:41;;;;;;;25.30;18.57;;;;;;;1.64;58.11;99156.41;10469871;28;20602;-66
2022/12/08 17:34:43;;;;;;;25.77;16.90;;;;;;;3.16;54.74;99158.75;10472054;28;20254;-66
2022/12/08 17:39:45;;;;;;;23.00;16.97;;;;;;;3.03;55.22;99156.50;10466079;28;20234;-64
2022/12/08 17:44:46;;;;;;;25.27;18.27;;;;;;;4.01;52.44;99181.06;10473273;28;20234;-64
2022/12/08 17:49:48;;;;;;;31.23;21.70;;;;;;;2.60;55.52;99148.22;10472309;28;20230;-65
2022/12/08 17:54:50;;;;;;;31.60;20.93;;;;;;;4.07;53.04;99189.34;10463999;28;20328;-65
2022/12/08 17:59:51;;;;;;;28.00;19.93;;;;;;;3.97;52.68;99194.78;10469927;28;20254;-65
2022/12/08 18:04:53;;;;;;;39.83;25.63;;;;;;;4.22;52.43;99216.91;10464452;28;20228;-65
2022/12/08 18:09:55;;;;;;;55.17;35.30;;;;;;;4.09;52.98;99212.06;10462590;28;20227;-65
2022/12/08 18:14:57;;;;;;;47.20;33.80;;;;;;;4.47;51.94;99219.75;10460062;28;20235;-68
2022/12/08 18:19:58;;;;;;;32.67;24.10;;;;;;;4.24;52.00;99216.75;10467268;28;20245;-66
2022/12/08 18:25:00;;;;;;;46.37;33.40;;;;;;;3.28;54.44;99170.78;10465200;28;20238;-65
2022/12/08 18:30:03;;;;;;;34.43;26.30;;;;;;;4.36;52.27;99223.50;10469432;28;20281;-65
2022/12/08 18:35:05;;;;;;;35.17;23.97;;;;;;;2.56;55.67;99153.97;10462682;28;20270;-66
2022/12/08 18:40:08;;;;;;;44.47;30.73;;;;;;;3.88;53.69;99193.88;10468718;28;20230;-65
2022/12/08 18:45:10;;;;;;;53.00;32.27;;;;;;;4.44;52.07;99210.31;10462460;28;20848;-65
2022/12/08 18:50:12;;;;;;;43.93;31.87;;;;;;;2.93;54.93;99167.13;10467444;28;20246;-65
2022/12/08 18:55:14;;;;;;;31.67;22.47;;;;;;;3.03;54.82;99169.72;10464723;28;20235;-66
2022/12/08 19:00:18;;;;;;;31.43;22.53;;;;;;;3.34;54.44;99153.44;10461053;28;20703;-65
2022/12/08 19:05:19;;;;;;;37.80;21.53;;;;;;;3.20;53.80;99131.84;10467029;28;20242;-65
2022/12/08 19:10:21;;;;;;;63.40;35.43;;;;;;;3.23;53.87;99134.19;10463956;28;20592;-65
2022/12/08 19:15:23;;;;;;;34.10;24.47;;;;;;;3.22;54.13;99158.97;10467910;28;20235;-65
2022/12/08 19:20:26;;;;;;;23.07;18.10;;;;;;;3.03;54.01;99149.38;10470276;28;20238;-65
2022/12/08 19:25:27;;;;;;;31.30;20.57;;;;;;;3.81;52.97;99158.44;10469556;28;20727;-64
2022/12/08 19:30:32;;;;;;;33.87;23.60;;;;;;;3.07;54.37;99145.47;10473519;28;20260;-64
2022/12/08 19:35:35;;;;;;;37.23;24.33;;;;;;;3.73;53.39;99155.72;10471461;28;20242;-65
2022/12/08 19:45:59;;;;;;;37.57;25.43;;;;;;;2.50;55.34;99098.13;10480655;28;20231;-65
2022/12/08 19:51:01;;;;;;;28.27;19.23;;;;;;;2.31;56.87;99158.97;10476897;28;20261;-65
2022/12/08 19:56:03;;;;;;;22.40;16.73;;;;;;;3.10;55.21;99126.63;10476691;28;20624;-64
2022/12/08 20:01:05;;;;;;;23.67;16.67;;;;;;;3.69;53.60;99119.97;10471934;28;20234;-65
2022/12/08 20:06:14;;;;;;;23.27;15.60;;;;;;;2.43;55.98;99112.06;10464793;28;20755;-65
2022/12/08 20:11:16;;;;;;;25.73;17.20;;;;;;;3.47;53.67;99111.56;10473932;28;20322;-65
2022/12/08 20:16:18;;;;;;;23.53;16.13;;;;;;;3.98;52.51;99122.28;10484166;22;20236;-34
2022/12/08 20:21:20;;;;;;;23.37;16.27;;;;;;;3.76;52.07;99118.38;10393102;28;20557;-35
2022/12/08 20:26:23;;;;;;;22.93;16.20;;;;;;;2.77;53.24;99106.13;10386094;28;20232;-36
2022/12/08 20:31:28;;;;;;;21.23;15.60;;;;;;;4.04;51.43;99156.09;10396181;23;20729;-63
2022/12/08 20:36:30;;;;;;;24.40;15.60;;;;;;;3.34;51.77;99114.59;10381773;28;20244;-63
2022/12/08 20:41:32;;;;;;;22.83;15.00;;;;;;;3.60;51.59;99141.09;10387777;28;20259;-64
2022/12/08 20:46:39;;;;;;;18.20;14.17;;;;;;;3.87;50.57;99141.94;10408783;23;20237;-33
2022/12/08 20:51:48;;;;;;;20.80;14.20;;;;;;;3.90;51.34;99148.72;10389884;28;20242;-33
2022/12/08 20:56:50;;;;;;;20.33;14.33;;;;;;;3.39;51.82;99119.44;10378030;28;20243;-33
2022/12/08 21:01:52;;;;;;;22.77;16.17;;;;;;;3.60;52.53;99153.50;10386535;28;20240;-35
2022/12/08 21:06:54;;;;;;;31.60;21.90;;;;;;;3.90;51.56;99148.72;10381465;28;20235;-34
2022/12/08 21:11:56;;;;;;;29.87;21.43;;;;;;;3.45;51.98;99132.88;10394236;28;20600;-35
2022/12/08 21:16:58;;;;;;;31.13;22.37;;;;;;;3.98;51.13;99157.53;10382986;28;20856;-34
2022/12/08 21:22:00;;;;;;;30.10;22.43;;;;;;;3.30;52.09;99120.38;10388456;28;20317;-35
2022/12/08 21:27:02;;;;;;;25.87;20.60;;;;;;;3.24;53.35;99156.16;10385892;28;20325;-36
2022/12/08 21:32:04;;;;;;;30.50;23.77;;;;;;;2.38;54.94;99141.53;10385410;28;20244;-34
2022/12/08 21:37:06;;;;;;;32.33;23.83;;;;;;;2.09;55.76;99152.25;10384973;28;20716;-36
2022/12/08 21:47:34;;;;;;;26.90;20.03;;;;;;;0.98;58.17;99136.84;10379032;28;20239;-33
2022/12/08 21:52:38;;;;;;;26.90;18.60;;;;;;;1.46;57.39;99145.75;10388304;28;20230;-38
2022/12/08 21:57:40;;;;;;;31.60;18.93;;;;;;;0.59;58.46;99122.78;10381801;28;20236;-33
2022/12/08 22:02:42;;;;;;;29.30;21.40;;;;;;;0.73;59.50;99134.72;10389699;28;20246;-36
2022/12/08 22:07:44;;;;;;;24.83;17.23;;;;;;;1.05;57.60;99118.66;10378085;28;20245;-34
2022/12/08 22:12:46;;;;;;;26.10;18.70;;;;;;;1.43;56.96;99109.91;10387618;28;20244;-36
2022/12/08 22:17:48;;;;;;;19.67;15.73;;;;;;;1.10;57.64;99105.94;10382735;28;20239;-35
2022/12/08 22:22:49;;;;;;;19.93;15.57;;;;;;;2.37;54.14;99073.88;10384797;28;20528;-33
2022/12/08 22:27:51;;;;;;;18.80;12.93;;;;;;;1.19;55.45;99091.06;10388529;28;20419;-35
2022/12/08 22:32:53;;;;;;;20.23;12.20;;;;;;;0.87;57.15;99093.00;10390808;28;20239;-35
2022/12/08 22:37:55;;;;;;;15.07;12.17;;;;;;;2.01;54.85;99092.25;10379284;28;20329;-35
2022/12/08 22:42:56;;;;;;;16.50;12.57;;;;;;;2.22;53.56;99078.00;10392836;28;20239;-32
2022/12/08 22:47:58;;;;;;;16.33;12.47;;;;;;;2.19;53.63;99075.66;10372348;28;20243;-36
2022/12/08 22:53:00;;;;;;;17.37;11.50;;;;;;;1.72;54.63;99087.91;10390876;28;20693;-34
2022/12/08 22:58:02;;;;;;;15.80;10.57;;;;;;;2.60;53.05;99061.06;10382032;28;20246;-34
2022/12/08 23:03:04;;;;;;;13.37;11.23;;;;;;;1.74;54.17;99054.34;10380321;28;20539;-36
2022/12/08 23:08:07;;;;;;;15.20;12.10;;;;;;;1.86;54.34;99059.41;10370993;28;20719;-35
2022/12/08 23:13:11;;;;;;;21.00;15.17;;;;;;;2.79;52.06;99054.81;10383260;28;20247;-34
2022/12/08 23:18:15;;;;;;;22.87;17.50;;;;;;;1.38;55.09;99079.69;10372507;28;20568;-38
2022/12/08 23:23:17;;;;;;;17.47;13.10;;;;;;;1.18;55.48;99095.50;10386755;28;20325;-35
2022/12/08 23:28:18;;;;;;;15.07;11.27;;;;;;;0.83;55.98;99070.56;10380873;28;20238;-34
2022/12/08 23:33:20;;;;;;;15.87;10.17;;;;;;;0.75;56.42;99059.03;10377360;28;20239;-33
2022/12/08 23:38:22;;;;;;;14.20;10.57;;;;;;;1.22;55.31;99064.44;10385164;28;20707;-32
2022/12/08 23:43:24;;;;;;;13.73;10.03;;;;;;;2.04;53.23;99033.09;10380976;28;20247;-33
2022/12/08 23:48:27;;;;;;;15.97;9.70;;;;;;;1.51;54.27;99039.84;10380902;28;20239;-33